sensor_id;sensor_type;location;lat;lon;timestamp;P1;durP1;ratioP1;P2;durP2;ratioP2
11807;SDS011;5961;42.640;23.380;2023-05-23T00:01:36;6.73;;;5.90;;
11807;SDS011;5961;42.640;23.380;2023-05-23T00:04:03;6.37;;;5.00;;
11807;SDS011;5961;42.640;23.380;2023-05-23T00:06:30;6.20;;;5.17;;
11807;SDS011;5961;42.640;23.380;2023-05-23T00:08:58;6.83;;;5.33;;
11807;SDS011;5961;42.640;23.380;2023-05-23T00:11:25;8.80;;;6.80;;
11807;SDS011;5961;42.640;23.380;2023-05-23T00:13:54;10.17;;;6.20;;
11807;SDS011;5961;42.640;23.380;2023-05-23T00:16:21;10.03;;;5.33;;
11807;SDS011;5961;42.640;23.380;2023-05-23T00:18:48;8.97;;;5.93;;
11807;SDS011;5961;42.640;23.380;2023-05-23T00:21:15;6.23;;;4.80;;
11807;SDS011;5961;42.640;23.380;2023-05-23T00:23:42;6.43;;;5.10;;
11807;SDS011;5961;42.640;23.380;2023-05-23T00:26:09;12.00;;;4.97;;
11807;SDS011;5961;42.640;23.380;2023-05-23T00:28:36;5.90;;;4.20;;
11807;SDS011;5961;42.640;23.380;2023-05-23T00:31:04;6.77;;;4.23;;
11807;SDS011;5961;42.640;23.380;2023-05-23T00:33:31;8.27;;;4.50;;
11807;SDS011;5961;42.640;23.380;2023-05-23T00:35:58;5.30;;;4.03;;
11807;SDS011;5961;42.640;23.380;2023-05-23T00:38:25;5.67;;;3.90;;
11807;SDS011;5961;42.640;23.380;2023-05-23T00:40:52;6.47;;;4.53;;
11807;SDS011;5961;42.640;23.380;2023-05-23T00:43:19;4.40;;;3.53;;
11807;SDS011;5961;42.640;23.380;2023-05-23T00:45:47;4.20;;;3.80;;
11807;SDS011;5961;42.640;23.380;2023-05-23T00:48:15;6.53;;;3.87;;
11807;SDS011;5961;42.640;23.380;2023-05-23T00:50:42;5.20;;;3.93;;
11807;SDS011;5961;42.640;23.380;2023-05-23T00:53:09;4.93;;;3.90;;
11807;SDS011;5961;42.640;23.380;2023-05-23T00:55:35;4.07;;;3.60;;
11807;SDS011;5961;42.640;23.380;2023-05-23T00:58:03;4.20;;;3.80;;
11807;SDS011;5961;42.640;23.380;2023-05-23T01:00:30;6.97;;;4.77;;
11807;SDS011;5961;42.640;23.380;2023-05-23T01:02:58;4.70;;;4.07;;
11807;SDS011;5961;42.640;23.380;2023-05-23T01:05:26;4.33;;;3.93;;
11807;SDS011;5961;42.640;23.380;2023-05-23T01:07:53;5.30;;;4.10;;
11807;SDS011;5961;42.640;23.380;2023-05-23T01:10:20;4.50;;;4.10;;
11807;SDS011;5961;42.640;23.380;2023-05-23T01:12:51;6.10;;;4.10;;
11807;SDS011;5961;42.640;23.380;2023-05-23T01:15:27;4.30;;;3.67;;
11807;SDS011;5961;42.640;23.380;2023-05-23T01:17:58;5.03;;;3.50;;
11807;SDS011;5961;42.640;23.380;2023-05-23T01:20:31;4.33;;;3.33;;
11807;SDS011;5961;42.640;23.380;2023-05-23T01:23:14;6.23;;;3.40;;
11807;SDS011;5961;42.640;23.380;2023-05-23T01:26:06;4.30;;;3.60;;
11807;SDS011;5961;42.640;23.380;2023-05-23T01:28:46;4.63;;;3.50;;
11807;SDS011;5961;42.640;23.380;2023-05-23T01:31:17;3.80;;;3.37;;
11807;SDS011;5961;42.640;23.380;2023-05-23T01:33:45;3.93;;;3.63;;
11807;SDS011;5961;42.640;23.380;2023-05-23T01:36:14;6.83;;;3.80;;
11807;SDS011;5961;42.640;23.380;2023-05-23T01:38:40;7.90;;;3.70;;
11807;SDS011;5961;42.640;23.380;2023-05-23T01:41:07;4.90;;;3.93;;
11807;SDS011;5961;42.640;23.380;2023-05-23T01:43:34;5.47;;;4.40;;
11807;SDS011;5961;42.640;23.380;2023-05-23T01:46:02;5.60;;;4.37;;
11807;SDS011;5961;42.640;23.380;2023-05-23T01:48:31;6.43;;;4.43;;
11807;SDS011;5961;42.640;23.380;2023-05-23T01:50:58;8.17;;;3.97;;
11807;SDS011;5961;42.640;23.380;2023-05-23T01:53:26;6.60;;;3.90;;
11807;SDS011;5961;42.640;23.380;2023-05-23T01:55:55;5.27;;;3.50;;
11807;SDS011;5961;42.640;23.380;2023-05-23T01:58:22;7.30;;;4.00;;
11807;SDS011;5961;42.640;23.380;2023-05-23T02:00:49;5.37;;;4.03;;
11807;SDS011;5961;42.640;23.380;2023-05-23T02:03:18;4.10;;;3.60;;
11807;SDS011;5961;42.640;23.380;2023-05-23T02:05:44;7.17;;;4.00;;
11807;SDS011;5961;42.640;23.380;2023-05-23T02:08:11;5.03;;;3.90;;
11807;SDS011;5961;42.640;23.380;2023-05-23T02:10:38;4.90;;;3.50;;
11807;SDS011;5961;42.640;23.380;2023-05-23T02:13:04;4.07;;;3.67;;
11807;SDS011;5961;42.640;23.380;2023-05-23T02:15:31;4.10;;;3.67;;
11807;SDS011;5961;42.640;23.380;2023-05-23T02:17:58;4.63;;;3.50;;
11807;SDS011;5961;42.640;23.380;2023-05-23T02:20:27;4.30;;;3.90;;
11807;SDS011;5961;42.640;23.380;2023-05-23T02:22:54;4.57;;;3.40;;
11807;SDS011;5961;42.640;23.380;2023-05-23T02:25:20;4.27;;;3.47;;
11807;SDS011;5961;42.640;23.380;2023-05-23T02:27:47;4.73;;;3.20;;
11807;SDS011;5961;42.640;23.380;2023-05-23T02:30:14;3.40;;;3.10;;
11807;SDS011;5961;42.640;23.380;2023-05-23T02:32:40;3.77;;;3.27;;
11807;SDS011;5961;42.640;23.380;2023-05-23T02:35:07;3.70;;;2.70;;
11807;SDS011;5961;42.640;23.380;2023-05-23T02:37:36;5.00;;;3.00;;
11807;SDS011;5961;42.640;23.380;2023-05-23T02:40:04;3.67;;;3.37;;
11807;SDS011;5961;42.640;23.380;2023-05-23T02:42:32;6.00;;;2.80;;
11807;SDS011;5961;42.640;23.380;2023-05-23T02:44:59;3.40;;;3.00;;
11807;SDS011;5961;42.640;23.380;2023-05-23T02:47:25;5.13;;;3.00;;
11807;SDS011;5961;42.640;23.380;2023-05-23T02:49:52;4.47;;;3.27;;
11807;SDS011;5961;42.640;23.380;2023-05-23T02:52:19;4.20;;;2.83;;
11807;SDS011;5961;42.640;23.380;2023-05-23T02:54:47;4.17;;;3.17;;
11807;SDS011;5961;42.640;23.380;2023-05-23T02:57:14;3.70;;;2.50;;
11807;SDS011;5961;42.640;23.380;2023-05-23T02:59:41;6.23;;;3.20;;
11807;SDS011;5961;42.640;23.380;2023-05-23T03:02:07;4.13;;;2.70;;
11807;SDS011;5961;42.640;23.380;2023-05-23T03:04:34;4.30;;;2.73;;
11807;SDS011;5961;42.640;23.380;2023-05-23T03:07:02;4.37;;;2.70;;
11807;SDS011;5961;42.640;23.380;2023-05-23T03:09:28;3.70;;;2.63;;
11807;SDS011;5961;42.640;23.380;2023-05-23T03:11:56;2.97;;;2.67;;
11807;SDS011;5961;42.640;23.380;2023-05-23T03:14:23;2.60;;;2.40;;
11807;SDS011;5961;42.640;23.380;2023-05-23T03:16:50;3.20;;;2.70;;
11807;SDS011;5961;42.640;23.380;2023-05-23T03:19:16;5.47;;;2.57;;
11807;SDS011;5961;42.640;23.380;2023-05-23T03:21:43;3.03;;;2.67;;
11807;SDS011;5961;42.640;23.380;2023-05-23T03:24:09;2.77;;;2.50;;
11807;SDS011;5961;42.640;23.380;2023-05-23T03:26:36;4.27;;;3.03;;
11807;SDS011;5961;42.640;23.380;2023-05-23T03:29:04;2.83;;;2.40;;
11807;SDS011;5961;42.640;23.380;2023-05-23T03:31:31;4.23;;;2.57;;
11807;SDS011;5961;42.640;23.380;2023-05-23T03:33:58;2.70;;;2.50;;
11807;SDS011;5961;42.640;23.380;2023-05-23T03:36:24;2.87;;;2.60;;
11807;SDS011;5961;42.640;23.380;2023-05-23T03:38:52;3.90;;;2.40;;
11807;SDS011;5961;42.640;23.380;2023-05-23T03:41:19;3.30;;;2.70;;
11807;SDS011;5961;42.640;23.380;2023-05-23T03:43:45;2.90;;;2.70;;
11807;SDS011;5961;42.640;23.380;2023-05-23T03:46:13;2.60;;;2.40;;
11807;SDS011;5961;42.640;23.380;2023-05-23T03:48:40;4.90;;;2.60;;
11807;SDS011;5961;42.640;23.380;2023-05-23T03:51:07;3.30;;;2.70;;
11807;SDS011;5961;42.640;23.380;2023-05-23T03:53:34;2.60;;;2.40;;
11807;SDS011;5961;42.640;23.380;2023-05-23T03:56:00;3.63;;;2.50;;
11807;SDS011;5961;42.640;23.380;2023-05-23T03:58:27;2.73;;;2.50;;
11807;SDS011;5961;42.640;23.380;2023-05-23T04:00:54;2.80;;;2.50;;
11807;SDS011;5961;42.640;23.380;2023-05-23T04:03:22;2.60;;;2.40;;
11807;SDS011;5961;42.640;23.380;2023-05-23T04:05:50;3.07;;;2.60;;
11807;SDS011;5961;42.640;23.380;2023-05-23T04:08:16;3.33;;;2.30;;
11807;SDS011;5961;42.640;23.380;2023-05-23T04:10:46;5.10;;;3.10;;
11807;SDS011;5961;42.640;23.380;2023-05-23T04:13:12;2.60;;;2.40;;
11807;SDS011;5961;42.640;23.380;2023-05-23T04:15:39;4.90;;;2.60;;
11807;SDS011;5961;42.640;23.380;2023-05-23T04:18:06;3.90;;;2.90;;
11807;SDS011;5961;42.640;23.380;2023-05-23T04:20:35;8.00;;;3.60;;
11807;SDS011;5961;42.640;23.380;2023-05-23T04:23:01;3.87;;;3.07;;
11807;SDS011;5961;42.640;23.380;2023-05-23T04:25:28;3.97;;;3.03;;
11807;SDS011;5961;42.640;23.380;2023-05-23T04:27:55;4.03;;;3.63;;
11807;SDS011;5961;42.640;23.380;2023-05-23T04:30:21;5.93;;;4.17;;
11807;SDS011;5961;42.640;23.380;2023-05-23T04:32:48;7.50;;;4.30;;
11807;SDS011;5961;42.640;23.380;2023-05-23T04:35:15;7.33;;;5.43;;
11807;SDS011;5961;42.640;23.380;2023-05-23T04:37:43;5.57;;;4.90;;
11807;SDS011;5961;42.640;23.380;2023-05-23T04:40:11;5.00;;;4.50;;
11807;SDS011;5961;42.640;23.380;2023-05-23T04:42:38;5.20;;;4.20;;
11807;SDS011;5961;42.640;23.380;2023-05-23T04:45:06;5.63;;;4.87;;
11807;SDS011;5961;42.640;23.380;2023-05-23T04:47:35;4.73;;;4.23;;
11807;SDS011;5961;42.640;23.380;2023-05-23T04:50:02;6.07;;;5.07;;
11807;SDS011;5961;42.640;23.380;2023-05-23T04:52:29;8.07;;;5.27;;
11807;SDS011;5961;42.640;23.380;2023-05-23T04:54:58;6.80;;;5.33;;
11807;SDS011;5961;42.640;23.380;2023-05-23T04:57:25;11.30;;;5.40;;
11807;SDS011;5961;42.640;23.380;2023-05-23T04:59:52;8.53;;;6.13;;
11807;SDS011;5961;42.640;23.380;2023-05-23T05:02:18;8.70;;;6.27;;
11807;SDS011;5961;42.640;23.380;2023-05-23T05:04:45;6.93;;;6.07;;
11807;SDS011;5961;42.640;23.380;2023-05-23T05:07:13;11.73;;;6.13;;
11807;SDS011;5961;42.640;23.380;2023-05-23T05:09:40;7.73;;;6.00;;
11807;SDS011;5961;42.640;23.380;2023-05-23T05:12:08;9.37;;;5.70;;
11807;SDS011;5961;42.640;23.380;2023-05-23T05:14:35;8.47;;;6.03;;
11807;SDS011;5961;42.640;23.380;2023-05-23T05:17:02;8.90;;;5.67;;
11807;SDS011;5961;42.640;23.380;2023-05-23T05:19:29;8.07;;;6.60;;
11807;SDS011;5961;42.640;23.380;2023-05-23T05:21:56;9.13;;;6.33;;
11807;SDS011;5961;42.640;23.380;2023-05-23T05:24:24;9.10;;;6.83;;
11807;SDS011;5961;42.640;23.380;2023-05-23T05:26:51;11.90;;;6.53;;
11807;SDS011;5961;42.640;23.380;2023-05-23T05:29:20;11.00;;;7.10;;
11807;SDS011;5961;42.640;23.380;2023-05-23T05:31:47;8.03;;;6.80;;
11807;SDS011;5961;42.640;23.380;2023-05-23T05:34:13;13.17;;;6.30;;
11807;SDS011;5961;42.640;23.380;2023-05-23T05:36:40;11.00;;;7.43;;
11807;SDS011;5961;42.640;23.380;2023-05-23T05:39:10;8.00;;;6.80;;
11807;SDS011;5961;42.640;23.380;2023-05-23T05:41:38;8.50;;;6.80;;
11807;SDS011;5961;42.640;23.380;2023-05-23T05:44:05;9.03;;;7.07;;
11807;SDS011;5961;42.640;23.380;2023-05-23T05:46:33;10.43;;;6.77;;
11807;SDS011;5961;42.640;23.380;2023-05-23T05:49:00;11.50;;;7.77;;
11807;SDS011;5961;42.640;23.380;2023-05-23T05:51:27;10.27;;;8.23;;
11807;SDS011;5961;42.640;23.380;2023-05-23T05:53:53;9.97;;;7.33;;
11807;SDS011;5961;42.640;23.380;2023-05-23T05:56:20;13.33;;;8.33;;
11807;SDS011;5961;42.640;23.380;2023-05-23T05:58:47;13.63;;;8.43;;
11807;SDS011;5961;42.640;23.380;2023-05-23T06:01:14;12.20;;;8.47;;
11807;SDS011;5961;42.640;23.380;2023-05-23T06:03:43;15.37;;;8.87;;
11807;SDS011;5961;42.640;23.380;2023-05-23T06:06:09;12.20;;;9.33;;
11807;SDS011;5961;42.640;23.380;2023-05-23T06:08:37;24.90;;;12.17;;
11807;SDS011;5961;42.640;23.380;2023-05-23T06:11:03;19.50;;;12.43;;
11807;SDS011;5961;42.640;23.380;2023-05-23T06:13:30;18.10;;;12.67;;
11807;SDS011;5961;42.640;23.380;2023-05-23T06:15:57;22.07;;;13.23;;
11807;SDS011;5961;42.640;23.380;2023-05-23T06:18:24;19.43;;;12.47;;
11807;SDS011;5961;42.640;23.380;2023-05-23T06:20:52;20.87;;;12.47;;
11807;SDS011;5961;42.640;23.380;2023-05-23T06:23:18;22.17;;;12.87;;
11807;SDS011;5961;42.640;23.380;2023-05-23T06:25:45;21.13;;;13.40;;
11807;SDS011;5961;42.640;23.380;2023-05-23T06:28:12;16.97;;;11.70;;
11807;SDS011;5961;42.640;23.380;2023-05-23T06:30:38;16.83;;;11.57;;
11807;SDS011;5961;42.640;23.380;2023-05-23T06:33:05;14.67;;;10.97;;
11807;SDS011;5961;42.640;23.380;2023-05-23T06:35:32;20.33;;;12.73;;
11807;SDS011;5961;42.640;23.380;2023-05-23T06:38:00;21.80;;;13.87;;
11807;SDS011;5961;42.640;23.380;2023-05-23T06:40:27;20.37;;;14.33;;
11807;SDS011;5961;42.640;23.380;2023-05-23T06:42:53;21.57;;;13.93;;
11807;SDS011;5961;42.640;23.380;2023-05-23T06:45:20;28.33;;;14.87;;
11807;SDS011;5961;42.640;23.380;2023-05-23T06:47:47;20.30;;;13.43;;
11807;SDS011;5961;42.640;23.380;2023-05-23T06:52:43;24.60;;;14.83;;
11807;SDS011;5961;42.640;23.380;2023-05-23T06:55:12;22.23;;;13.53;;
11807;SDS011;5961;42.640;23.380;2023-05-23T06:57:42;23.27;;;13.80;;
11807;SDS011;5961;42.640;23.380;2023-05-23T07:00:09;18.20;;;13.93;;
11807;SDS011;5961;42.640;23.380;2023-05-23T07:02:37;25.33;;;13.70;;
11807;SDS011;5961;42.640;23.380;2023-05-23T07:05:04;20.40;;;14.33;;
11807;SDS011;5961;42.640;23.380;2023-05-23T07:07:31;21.90;;;13.83;;
11807;SDS011;5961;42.640;23.380;2023-05-23T07:09:58;21.53;;;13.73;;
11807;SDS011;5961;42.640;23.380;2023-05-23T07:12:26;20.77;;;14.10;;
11807;SDS011;5961;42.640;23.380;2023-05-23T07:14:53;17.40;;;12.40;;
11807;SDS011;5961;42.640;23.380;2023-05-23T07:17:19;20.03;;;13.60;;
11807;SDS011;5961;42.640;23.380;2023-05-23T07:19:46;20.17;;;14.40;;
11807;SDS011;5961;42.640;23.380;2023-05-23T07:22:13;19.40;;;12.77;;
11807;SDS011;5961;42.640;23.380;2023-05-23T07:24:39;18.30;;;13.03;;
11807;SDS011;5961;42.640;23.380;2023-05-23T07:27:06;20.57;;;12.40;;
11807;SDS011;5961;42.640;23.380;2023-05-23T07:29:34;20.20;;;14.53;;
11807;SDS011;5961;42.640;23.380;2023-05-23T07:32:01;19.67;;;12.20;;
11807;SDS011;5961;42.640;23.380;2023-05-23T07:34:27;18.73;;;12.40;;
11807;SDS011;5961;42.640;23.380;2023-05-23T07:36:54;19.70;;;13.50;;
11807;SDS011;5961;42.640;23.380;2023-05-23T07:39:21;19.50;;;12.57;;
11807;SDS011;5961;42.640;23.380;2023-05-23T07:41:48;21.10;;;12.77;;
11807;SDS011;5961;42.640;23.380;2023-05-23T07:44:15;21.33;;;12.77;;
11807;SDS011;5961;42.640;23.380;2023-05-23T07:46:44;21.43;;;11.93;;
11807;SDS011;5961;42.640;23.380;2023-05-23T07:49:11;18.40;;;11.80;;
11807;SDS011;5961;42.640;23.380;2023-05-23T07:51:38;20.57;;;11.90;;
11807;SDS011;5961;42.640;23.380;2023-05-23T07:54:05;19.17;;;11.93;;
11807;SDS011;5961;42.640;23.380;2023-05-23T07:56:32;20.10;;;11.70;;
11807;SDS011;5961;42.640;23.380;2023-05-23T07:58:59;16.70;;;11.40;;
11807;SDS011;5961;42.640;23.380;2023-05-23T08:01:25;18.00;;;11.77;;
11807;SDS011;5961;42.640;23.380;2023-05-23T08:03:53;21.70;;;11.37;;
11807;SDS011;5961;42.640;23.380;2023-05-23T08:06:20;19.80;;;11.67;;
11807;SDS011;5961;42.640;23.380;2023-05-23T08:08:47;17.90;;;10.83;;
11807;SDS011;5961;42.640;23.380;2023-05-23T08:11:13;16.37;;;10.73;;
11807;SDS011;5961;42.640;23.380;2023-05-23T08:13:40;14.47;;;9.63;;
11807;SDS011;5961;42.640;23.380;2023-05-23T08:16:07;17.90;;;11.63;;
11807;SDS011;5961;42.640;23.380;2023-05-23T08:18:34;15.77;;;10.97;;
11807;SDS011;5961;42.640;23.380;2023-05-23T08:21:02;15.10;;;10.10;;
11807;SDS011;5961;42.640;23.380;2023-05-23T08:23:29;17.87;;;10.57;;
11807;SDS011;5961;42.640;23.380;2023-05-23T08:25:55;12.97;;;8.97;;
11807;SDS011;5961;42.640;23.380;2023-05-23T08:28:22;13.33;;;8.60;;
11807;SDS011;5961;42.640;23.380;2023-05-23T08:30:49;13.97;;;9.57;;
11807;SDS011;5961;42.640;23.380;2023-05-23T08:33:15;14.80;;;10.07;;
11807;SDS011;5961;42.640;23.380;2023-05-23T08:35:42;15.93;;;9.87;;
11807;SDS011;5961;42.640;23.380;2023-05-23T08:38:10;13.47;;;10.00;;
11807;SDS011;5961;42.640;23.380;2023-05-23T08:40:37;17.07;;;9.80;;
11807;SDS011;5961;42.640;23.380;2023-05-23T08:43:07;16.57;;;10.03;;
11807;SDS011;5961;42.640;23.380;2023-05-23T08:45:36;12.90;;;9.20;;
11807;SDS011;5961;42.640;23.380;2023-05-23T08:48:03;13.50;;;9.57;;
11807;SDS011;5961;42.640;23.380;2023-05-23T08:50:33;11.43;;;7.80;;
11807;SDS011;5961;42.640;23.380;2023-05-23T08:53:04;12.13;;;8.57;;
11807;SDS011;5961;42.640;23.380;2023-05-23T08:55:37;12.50;;;8.23;;
11807;SDS011;5961;42.640;23.380;2023-05-23T08:58:05;16.57;;;7.90;;
11807;SDS011;5961;42.640;23.380;2023-05-23T09:00:32;11.77;;;8.17;;
11807;SDS011;5961;42.640;23.380;2023-05-23T09:02:59;11.63;;;7.73;;
11807;SDS011;5961;42.640;23.380;2023-05-23T09:05:26;11.03;;;7.73;;
11807;SDS011;5961;42.640;23.380;2023-05-23T09:07:53;10.80;;;8.80;;
11807;SDS011;5961;42.640;23.380;2023-05-23T09:10:21;12.27;;;7.93;;
11807;SDS011;5961;42.640;23.380;2023-05-23T09:12:49;10.37;;;8.00;;
11807;SDS011;5961;42.640;23.380;2023-05-23T09:15:16;7.90;;;6.90;;
11807;SDS011;5961;42.640;23.380;2023-05-23T09:17:43;7.17;;;6.37;;
11807;SDS011;5961;42.640;23.380;2023-05-23T09:20:11;7.80;;;5.90;;
11807;SDS011;5961;42.640;23.380;2023-05-23T09:22:38;6.73;;;5.20;;
11807;SDS011;5961;42.640;23.380;2023-05-23T09:25:06;10.00;;;6.17;;
11807;SDS011;5961;42.640;23.380;2023-05-23T09:27:33;8.40;;;5.50;;
11807;SDS011;5961;42.640;23.380;2023-05-23T09:30:05;7.83;;;5.87;;
11807;SDS011;5961;42.640;23.380;2023-05-23T09:32:33;6.83;;;5.07;;
11807;SDS011;5961;42.640;23.380;2023-05-23T09:35:00;7.30;;;4.83;;
11807;SDS011;5961;42.640;23.380;2023-05-23T09:37:28;7.13;;;4.67;;
11807;SDS011;5961;42.640;23.380;2023-05-23T09:42:30;9.50;;;5.10;;
11807;SDS011;5961;42.640;23.380;2023-05-23T09:44:58;7.47;;;4.03;;
11807;SDS011;5961;42.640;23.380;2023-05-23T09:47:26;8.40;;;4.47;;
11807;SDS011;5961;42.640;23.380;2023-05-23T09:49:53;5.03;;;4.27;;
11807;SDS011;5961;42.640;23.380;2023-05-23T09:52:20;8.17;;;4.60;;
11807;SDS011;5961;42.640;23.380;2023-05-23T09:54:47;7.37;;;4.70;;
11807;SDS011;5961;42.640;23.380;2023-05-23T09:57:14;7.70;;;5.13;;
11807;SDS011;5961;42.640;23.380;2023-05-23T09:59:42;6.20;;;4.30;;
11807;SDS011;5961;42.640;23.380;2023-05-23T10:02:17;8.67;;;4.97;;
11807;SDS011;5961;42.640;23.380;2023-05-23T10:05:02;10.33;;;5.23;;
11807;SDS011;5961;42.640;23.380;2023-05-23T10:07:32;6.47;;;4.50;;
11807;SDS011;5961;42.640;23.380;2023-05-23T10:10:01;6.43;;;3.87;;
11807;SDS011;5961;42.640;23.380;2023-05-23T10:12:39;7.67;;;4.07;;
11807;SDS011;5961;42.640;23.380;2023-05-23T10:15:10;5.17;;;4.20;;
11807;SDS011;5961;42.640;23.380;2023-05-23T10:17:45;6.70;;;5.00;;
11807;SDS011;5961;42.640;23.380;2023-05-23T10:20:24;7.97;;;4.50;;
11807;SDS011;5961;42.640;23.380;2023-05-23T10:22:53;6.33;;;4.20;;
11807;SDS011;5961;42.640;23.380;2023-05-23T10:25:21;5.70;;;3.70;;
11807;SDS011;5961;42.640;23.380;2023-05-23T10:27:48;8.50;;;3.90;;
11807;SDS011;5961;42.640;23.380;2023-05-23T10:30:17;6.57;;;4.30;;
11807;SDS011;5961;42.640;23.380;2023-05-23T10:32:46;6.63;;;3.90;;
11807;SDS011;5961;42.640;23.380;2023-05-23T10:35:15;6.63;;;3.90;;
11807;SDS011;5961;42.640;23.380;2023-05-23T10:37:48;6.53;;;4.03;;
11807;SDS011;5961;42.640;23.380;2023-05-23T10:40:23;8.23;;;4.40;;
11807;SDS011;5961;42.640;23.380;2023-05-23T10:42:59;5.07;;;4.18;;
11807;SDS011;5961;42.640;23.380;2023-05-23T10:45:31;7.05;;;3.97;;
11807;SDS011;5961;42.640;23.380;2023-05-23T10:48:08;4.40;;;3.30;;
11807;SDS011;5961;42.640;23.380;2023-05-23T10:50:45;7.03;;;4.50;;
11807;SDS011;5961;42.640;23.380;2023-05-23T10:53:27;5.83;;;3.50;;
11807;SDS011;5961;42.640;23.380;2023-05-23T10:55:54;7.30;;;3.50;;
11807;SDS011;5961;42.640;23.380;2023-05-23T10:58:22;8.75;;;4.22;;
11807;SDS011;5961;42.640;23.380;2023-05-23T11:00:52;7.97;;;4.38;;
11807;SDS011;5961;42.640;23.380;2023-05-23T11:03:30;6.13;;;4.50;;
11807;SDS011;5961;42.640;23.380;2023-05-23T11:05:59;7.90;;;6.22;;
11807;SDS011;5961;42.640;23.380;2023-05-23T11:08:26;4.45;;;4.05;;
11807;SDS011;5961;42.640;23.380;2023-05-23T11:10:55;7.13;;;3.75;;
11807;SDS011;5961;42.640;23.380;2023-05-23T11:13:25;6.18;;;5.22;;
11807;SDS011;5961;42.640;23.380;2023-05-23T11:16:24;7.00;;;4.20;;
11807;SDS011;5961;42.640;23.380;2023-05-23T11:18:58;4.75;;;3.40;;
11807;SDS011;5961;42.640;23.380;2023-05-23T11:21:51;6.53;;;4.00;;
11807;SDS011;5961;42.640;23.380;2023-05-23T11:24:23;4.60;;;3.42;;
11807;SDS011;5961;42.640;23.380;2023-05-23T11:27:10;5.20;;;3.55;;
11807;SDS011;5961;42.640;23.380;2023-05-23T11:29:37;5.50;;;3.92;;
11807;SDS011;5961;42.640;23.380;2023-05-23T11:32:09;5.28;;;3.60;;
11807;SDS011;5961;42.640;23.380;2023-05-23T11:34:38;5.97;;;3.75;;
11807;SDS011;5961;42.640;23.380;2023-05-23T11:37:05;4.95;;;3.75;;
11807;SDS011;5961;42.640;23.380;2023-05-23T11:39:32;5.07;;;3.70;;
11807;SDS011;5961;42.640;23.380;2023-05-23T11:41:59;5.95;;;3.65;;
11807;SDS011;5961;42.640;23.380;2023-05-23T11:44:26;7.22;;;6.07;;
11807;SDS011;5961;42.640;23.380;2023-05-23T11:46:59;5.13;;;3.50;;
11807;SDS011;5961;42.640;23.380;2023-05-23T11:49:27;5.47;;;3.83;;
11807;SDS011;5961;42.640;23.380;2023-05-23T11:51:56;5.40;;;3.88;;
11807;SDS011;5961;42.640;23.380;2023-05-23T11:54:23;8.30;;;4.70;;
11807;SDS011;5961;42.640;23.380;2023-05-23T11:56:51;5.20;;;3.83;;
11807;SDS011;5961;42.640;23.380;2023-05-23T11:59:18;5.18;;;3.92;;
11807;SDS011;5961;42.640;23.380;2023-05-23T12:01:46;5.40;;;4.05;;
11807;SDS011;5961;42.640;23.380;2023-05-23T12:04:12;5.03;;;3.80;;
11807;SDS011;5961;42.640;23.380;2023-05-23T12:06:39;6.50;;;3.90;;
11807;SDS011;5961;42.640;23.380;2023-05-23T12:09:09;3.80;;;3.38;;
11807;SDS011;5961;42.640;23.380;2023-05-23T12:11:37;4.88;;;3.42;;
11807;SDS011;5961;42.640;23.380;2023-05-23T12:14:05;7.07;;;3.88;;
11807;SDS011;5961;42.640;23.380;2023-05-23T12:16:32;7.70;;;3.78;;
11807;SDS011;5961;42.640;23.380;2023-05-23T12:18:59;8.00;;;3.80;;
11807;SDS011;5961;42.640;23.380;2023-05-23T12:21:39;9.85;;;3.75;;
11807;SDS011;5961;42.640;23.380;2023-05-23T12:24:12;5.07;;;4.15;;
11807;SDS011;5961;42.640;23.380;2023-05-23T12:26:51;5.68;;;3.80;;
11807;SDS011;5961;42.640;23.380;2023-05-23T12:29:19;8.57;;;4.15;;
11807;SDS011;5961;42.640;23.380;2023-05-23T12:31:47;6.18;;;4.00;;
11807;SDS011;5961;42.640;23.380;2023-05-23T12:34:18;5.85;;;4.43;;
11807;SDS011;5961;42.640;23.380;2023-05-23T12:36:46;5.47;;;4.53;;
11807;SDS011;5961;42.640;23.380;2023-05-23T12:39:15;7.72;;;3.92;;
11807;SDS011;5961;42.640;23.380;2023-05-23T12:41:49;8.50;;;4.43;;
11807;SDS011;5961;42.640;23.380;2023-05-23T12:44:15;7.28;;;3.58;;
11807;SDS011;5961;42.640;23.380;2023-05-23T12:46:42;6.18;;;3.90;;
11807;SDS011;5961;42.640;23.380;2023-05-23T12:49:09;7.35;;;5.03;;
11807;SDS011;5961;42.640;23.380;2023-05-23T12:51:36;7.05;;;4.43;;
11807;SDS011;5961;42.640;23.380;2023-05-23T12:54:03;6.32;;;3.75;;
11807;SDS011;5961;42.640;23.380;2023-05-23T12:56:31;8.25;;;3.83;;
11807;SDS011;5961;42.640;23.380;2023-05-23T12:58:57;4.07;;;3.67;;
11807;SDS011;5961;42.640;23.380;2023-05-23T13:01:25;5.38;;;4.30;;
11807;SDS011;5961;42.640;23.380;2023-05-23T13:03:52;6.22;;;4.55;;
11807;SDS011;5961;42.640;23.380;2023-05-23T13:06:19;5.18;;;3.50;;
11807;SDS011;5961;42.640;23.380;2023-05-23T13:08:46;5.03;;;4.30;;
11807;SDS011;5961;42.640;23.380;2023-05-23T13:11:14;5.90;;;3.85;;
11807;SDS011;5961;42.640;23.380;2023-05-23T13:13:42;8.23;;;3.72;;
11807;SDS011;5961;42.640;23.380;2023-05-23T13:16:09;8.82;;;4.00;;
11807;SDS011;5961;42.640;23.380;2023-05-23T13:18:36;5.55;;;4.25;;
11807;SDS011;5961;42.640;23.380;2023-05-23T13:21:03;8.15;;;3.70;;
11807;SDS011;5961;42.640;23.380;2023-05-23T13:23:30;8.45;;;5.82;;
11807;SDS011;5961;42.640;23.380;2023-05-23T13:25:57;5.45;;;4.03;;
11807;SDS011;5961;42.640;23.380;2023-05-23T13:28:23;4.90;;;4.40;;
11807;SDS011;5961;42.640;23.380;2023-05-23T13:30:52;10.25;;;3.90;;
11807;SDS011;5961;42.640;23.380;2023-05-23T13:33:19;8.45;;;5.10;;
11807;SDS011;5961;42.640;23.380;2023-05-23T13:35:47;7.35;;;4.95;;
11807;SDS011;5961;42.640;23.380;2023-05-23T13:38:14;5.38;;;3.72;;
11807;SDS011;5961;42.640;23.380;2023-05-23T13:40:42;7.32;;;5.20;;
11807;SDS011;5961;42.640;23.380;2023-05-23T13:43:09;6.22;;;3.80;;
11807;SDS011;5961;42.640;23.380;2023-05-23T13:45:36;6.00;;;3.83;;
11807;SDS011;5961;42.640;23.380;2023-05-23T13:48:04;6.15;;;4.38;;
11807;SDS011;5961;42.640;23.380;2023-05-23T13:50:31;5.25;;;3.63;;
11807;SDS011;5961;42.640;23.380;2023-05-23T13:52:57;4.55;;;3.80;;
11807;SDS011;5961;42.640;23.380;2023-05-23T13:55:24;6.55;;;4.30;;
11807;SDS011;5961;42.640;23.380;2023-05-23T13:57:51;6.97;;;4.70;;
11807;SDS011;5961;42.640;23.380;2023-05-23T14:00:18;5.65;;;4.75;;
11807;SDS011;5961;42.640;23.380;2023-05-23T14:02:45;6.18;;;5.57;;
11807;SDS011;5961;42.640;23.380;2023-05-23T14:05:13;8.65;;;5.28;;
11807;SDS011;5961;42.640;23.380;2023-05-23T14:07:40;4.32;;;3.92;;
11807;SDS011;5961;42.640;23.380;2023-05-23T14:10:11;7.75;;;4.00;;
11807;SDS011;5961;42.640;23.380;2023-05-23T14:12:38;10.68;;;6.18;;
11807;SDS011;5961;42.640;23.380;2023-05-23T14:15:05;6.15;;;4.03;;
11807;SDS011;5961;42.640;23.380;2023-05-23T14:17:32;5.15;;;4.60;;
11807;SDS011;5961;42.640;23.380;2023-05-23T14:19:59;9.23;;;6.88;;
11807;SDS011;5961;42.640;23.380;2023-05-23T14:22:27;7.63;;;6.20;;
11807;SDS011;5961;42.640;23.380;2023-05-23T14:24:53;5.28;;;4.07;;
11807;SDS011;5961;42.640;23.380;2023-05-23T14:27:20;8.75;;;4.53;;
11807;SDS011;5961;42.640;23.380;2023-05-23T14:29:47;5.30;;;3.53;;
11807;SDS011;5961;42.640;23.380;2023-05-23T14:32:14;5.57;;;4.22;;
11807;SDS011;5961;42.640;23.380;2023-05-23T14:34:40;7.22;;;5.10;;
11807;SDS011;5961;42.640;23.380;2023-05-23T14:37:07;8.95;;;4.18;;
11807;SDS011;5961;42.640;23.380;2023-05-23T14:39:35;5.95;;;5.28;;
11807;SDS011;5961;42.640;23.380;2023-05-23T14:42:02;12.32;;;4.68;;
11807;SDS011;5961;42.640;23.380;2023-05-23T14:44:29;6.50;;;4.43;;
11807;SDS011;5961;42.640;23.380;2023-05-23T14:46:55;9.32;;;4.95;;
11807;SDS011;5961;42.640;23.380;2023-05-23T14:49:22;3.90;;;3.60;;
11807;SDS011;5961;42.640;23.380;2023-05-23T14:51:49;8.63;;;4.55;;
11807;SDS011;5961;42.640;23.380;2023-05-23T14:54:15;5.13;;;3.67;;